createdAt,value
2023-04-27T00:00:42.017Z,100.00
2023-04-27T00:03:46.573Z,100.00
2023-04-27T00:06:50.649Z,100.00
2023-04-27T00:09:54.236Z,100.00
2023-04-27T00:12:57.798Z,100.00
2023-04-27T00:16:03.985Z,100.00
2023-04-27T00:19:09.056Z,100.00
2023-04-27T00:22:12.720Z,100.00
2023-04-27T00:25:16.522Z,100.00
2023-04-27T00:28:20.265Z,100.00
2023-04-27T00:31:25.346Z,100.00
2023-04-27T00:34:29.005Z,100.00
2023-04-27T00:37:32.671Z,100.00
2023-04-27T00:40:36.346Z,100.00
2023-04-27T00:43:44.713Z,100.00
2023-04-27T00:46:49.741Z,100.00
2023-04-27T00:49:53.516Z,100.00
2023-04-27T00:52:58.172Z,100.00
2023-04-27T00:56:01.994Z,100.00
2023-04-27T00:59:05.708Z,100.00
2023-04-27T01:02:12.646Z,100.00
2023-04-27T01:05:16.752Z,100.00
2023-04-27T01:08:20.533Z,100.00
2023-04-27T01:11:24.109Z,100.00
2023-04-27T01:14:27.927Z,100.00
2023-04-27T01:17:32.939Z,100.00
2023-04-27T01:20:36.576Z,100.00
2023-04-27T01:23:41.572Z,100.00
2023-04-27T01:26:45.136Z,100.00
2023-04-27T01:29:48.934Z,100.00
2023-04-27T01:32:52.585Z,100.00
2023-04-27T01:35:56.238Z,100.00
2023-04-27T01:39:01.214Z,100.00
2023-04-27T01:42:05.126Z,100.00
2023-04-27T01:45:10.788Z,100.00
2023-04-27T01:48:14.500Z,100.00
2023-04-27T01:51:18.062Z,100.00
2023-04-27T01:54:23.092Z,100.00
2023-04-27T01:57:26.929Z,100.00
2023-04-27T02:00:30.793Z,100.00
2023-04-27T02:03:34.611Z,100.00
2023-04-27T02:06:38.369Z,100.00
2023-04-27T02:09:43.296Z,100.00
2023-04-27T02:12:46.916Z,100.00
2023-04-27T02:15:50.655Z,100.00
2023-04-27T02:18:54.641Z,100.00
2023-04-27T02:21:58.569Z,100.00
2023-04-27T02:25:03.637Z,100.00
2023-04-27T02:28:07.266Z,100.00
2023-04-27T02:31:12.345Z,100.00
2023-04-27T02:34:16.001Z,100.00
2023-04-27T02:37:19.614Z,100.00
2023-04-27T02:40:24.785Z,100.00
2023-04-27T02:43:28.569Z,100.00
2023-04-27T02:46:32.598Z,100.00
2023-04-27T02:49:38.032Z,100.00
2023-04-27T02:52:41.815Z,100.00
2023-04-27T02:55:49.262Z,100.00
2023-04-27T02:58:52.837Z,100.00
2023-04-27T03:01:56.399Z,100.00
2023-04-27T03:05:00.064Z,100.00
2023-04-27T03:08:05.252Z,100.00
2023-04-27T03:11:10.603Z,100.00
2023-04-27T03:14:14.458Z,100.00
2023-04-27T03:17:18.050Z,100.00
2023-04-27T03:20:23.090Z,100.00
2023-04-27T03:23:26.608Z,100.00
2023-04-27T03:26:31.701Z,100.00
2023-04-27T03:29:35.333Z,100.00
2023-04-27T03:32:39.037Z,100.00
2023-04-27T03:35:42.801Z,100.00
2023-04-27T03:38:46.351Z,100.00
2023-04-27T03:41:51.505Z,100.00
2023-04-27T03:44:55.115Z,100.00
2023-04-27T03:47:58.786Z,100.00
2023-04-27T03:51:02.594Z,100.00
2023-04-27T03:54:06.556Z,100.00
2023-04-27T03:57:11.588Z,100.00
2023-04-27T04:00:16.622Z,100.00
2023-04-27T04:03:20.472Z,100.00
2023-04-27T04:06:24.145Z,100.00
2023-04-27T04:09:27.784Z,100.00
2023-04-27T04:12:32.734Z,100.00
2023-04-27T04:15:36.453Z,100.00
2023-04-27T04:18:40.044Z,100.00
2023-04-27T04:21:43.765Z,100.00
2023-04-27T04:24:47.382Z,100.00
2023-04-27T04:27:52.404Z,100.00
2023-04-27T04:30:56.871Z,100.00
2023-04-27T04:34:01.516Z,100.00
2023-04-27T04:37:05.525Z,100.00
2023-04-27T04:40:10.990Z,100.00
2023-04-27T04:43:16.192Z,100.00
2023-04-27T04:46:20.274Z,100.00
2023-04-27T04:49:24.159Z,100.00
2023-04-27T04:52:27.946Z,100.00
2023-04-27T04:55:31.648Z,100.00
2023-04-27T04:58:36.644Z,100.00
2023-04-27T05:01:40.324Z,100.00
2023-04-27T05:04:44.016Z,100.00
2023-04-27T05:07:47.906Z,100.00
2023-04-27T05:10:51.911Z,100.00
2023-04-27T05:13:56.942Z,100.00
2023-04-27T05:17:00.528Z,100.00
2023-04-27T05:20:05.357Z,100.00
2023-04-27T05:23:09.102Z,100.00
2023-04-27T05:26:16.817Z,100.00
2023-04-27T05:29:21.962Z,100.00
2023-04-27T05:32:25.793Z,100.00
2023-04-27T05:35:29.847Z,100.00
2023-04-27T05:38:36.178Z,100.00
2023-04-27T05:41:40.025Z,100.00
2023-04-27T05:44:45.079Z,100.00
2023-04-27T05:47:48.778Z,100.00
2023-04-27T05:51:01.805Z,100.00
2023-04-27T05:54:05.731Z,100.00
2023-04-27T05:57:09.876Z,100.00
2023-04-27T06:00:17.666Z,100.00
2023-04-27T06:03:21.746Z,100.00
2023-04-27T06:06:26.367Z,100.00
2023-04-27T06:09:31.425Z,100.00
2023-04-27T06:12:34.988Z,100.00
2023-04-27T06:15:40.185Z,100.00
2023-04-27T06:18:44.312Z,100.00
2023-04-27T06:21:48.042Z,100.00
2023-04-27T06:24:51.629Z,100.00
2023-04-27T06:27:55.374Z,100.00
2023-04-27T06:31:00.370Z,100.00
2023-04-27T06:34:04.579Z,100.00
2023-04-27T06:37:08.907Z,100.00
2023-04-27T06:40:13.530Z,100.00
2023-04-27T06:43:17.332Z,100.00
2023-04-27T06:46:22.513Z,100.00
2023-04-27T06:49:26.826Z,100.00
2023-04-27T06:52:33.381Z,100.00
2023-04-27T06:55:37.312Z,100.00
2023-04-27T06:58:41.159Z,100.00
2023-04-27T07:01:46.309Z,100.00
2023-04-27T07:04:50.329Z,100.00
2023-04-27T07:07:54.193Z,100.00
2023-04-27T07:10:58.090Z,100.00
2023-04-27T07:14:02.680Z,100.00
2023-04-27T07:17:07.901Z,100.00
2023-04-27T07:20:12.003Z,100.00
2023-04-27T07:23:16.546Z,100.00
2023-04-27T07:26:20.104Z,100.00
2023-04-27T07:29:27.425Z,100.00
2023-04-27T07:32:32.695Z,100.00
2023-04-27T07:35:36.481Z,100.00
2023-04-27T07:38:40.093Z,100.00
2023-04-27T07:41:43.693Z,100.00
2023-04-27T07:44:47.493Z,100.00
2023-04-27T07:47:53.529Z,100.00
2023-04-27T07:50:57.461Z,100.00
2023-04-27T07:54:02.225Z,100.00
2023-04-27T07:57:10.522Z,100.00
2023-04-27T08:00:16.165Z,100.00
2023-04-27T08:03:22.913Z,100.00
2023-04-27T08:06:28.767Z,100.00
2023-04-27T08:09:33.418Z,100.00
2023-04-27T08:12:37.445Z,100.00
2023-04-27T08:15:41.752Z,100.00
2023-04-27T08:18:47.361Z,100.00
2023-04-27T08:21:51.173Z,100.00
2023-04-27T08:24:54.880Z,100.00
2023-04-27T08:27:58.507Z,100.00
2023-04-27T08:31:02.144Z,100.00
2023-04-27T08:34:07.552Z,100.00
2023-04-27T08:37:11.291Z,100.00
2023-04-27T08:40:15.597Z,100.00
2023-04-27T08:43:19.224Z,100.00
2023-04-27T08:46:25.254Z,100.00
2023-04-27T08:49:30.426Z,100.00
2023-04-27T08:52:34.213Z,92.81
2023-04-27T08:55:37.801Z,99.50
2023-04-27T08:58:41.720Z,100.00
2023-04-27T09:01:47.109Z,100.00
2023-04-27T09:04:52.528Z,100.00
2023-04-27T09:08:05.301Z,100.00
2023-04-27T09:11:09.128Z,100.00
2023-04-27T09:14:21.506Z,100.00
2023-04-27T09:17:28.280Z,94.34
2023-04-27T09:20:33.737Z,90.96
2023-04-27T09:23:39.569Z,86.62
2023-04-27T09:26:43.294Z,79.99
2023-04-27T09:29:47.016Z,87.50
2023-04-27T09:32:53.825Z,73.42
2023-04-27T09:36:00.597Z,83.68
2023-04-27T09:39:06.121Z,76.85
2023-04-27T09:42:10.015Z,78.11
2023-04-27T09:45:14.678Z,78.47
2023-04-27T09:48:19.631Z,76.15
2023-04-27T09:51:24.590Z,81.53
2023-04-27T09:54:33.259Z,85.87
2023-04-27T09:57:46.345Z,81.44
2023-04-27T10:01:07.305Z,81.77
2023-04-27T10:04:39.419Z,85.38
2023-04-27T10:07:46.754Z,85.64
2023-04-27T10:10:51.942Z,80.00
2023-04-27T10:13:56.662Z,85.29
2023-04-27T10:17:01.159Z,88.03
2023-04-27T10:20:09.121Z,85.70
2023-04-27T10:23:25.549Z,91.60
2023-04-27T10:26:29.937Z,93.45
2023-04-27T10:29:42.062Z,95.40
2023-04-27T10:32:54.286Z,85.49
2023-04-27T10:36:00.524Z,84.21
2023-04-27T10:39:16.964Z,82.84
2023-04-27T10:42:29.989Z,87.84
2023-04-27T10:45:36.008Z,92.45
2023-04-27T10:48:41.248Z,79.59
2023-04-27T10:51:44.964Z,86.97
2023-04-27T10:54:49.969Z,85.87
2023-04-27T10:57:56.384Z,80.84
2023-04-27T11:01:00.140Z,68.08
2023-04-27T11:04:05.501Z,65.89
2023-04-27T11:07:10.555Z,70.99
2023-04-27T11:10:19.730Z,64.12
2023-04-27T11:13:25.920Z,61.81
2023-04-27T11:16:32.037Z,63.06
2023-04-27T11:19:47.533Z,78.18
2023-04-27T11:22:51.452Z,63.42
2023-04-27T11:25:56.979Z,63.85
2023-04-27T11:29:05.559Z,65.75
2023-04-27T11:32:09.481Z,73.85
2023-04-27T11:35:13.778Z,71.88
2023-04-27T11:38:18.961Z,69.16
2023-04-27T11:41:24.414Z,74.72
2023-04-27T11:44:28.778Z,64.21
2023-04-27T11:47:34.364Z,59.78
2023-04-27T11:50:38.504Z,64.81
2023-04-27T11:53:42.857Z,60.70
2023-04-27T11:56:47.890Z,61.66
2023-04-27T11:59:52.025Z,62.86
2023-04-27T12:02:55.887Z,60.46
2023-04-27T12:06:16.088Z,59.27
2023-04-27T12:09:24.124Z,59.60
2023-04-27T12:12:29.435Z,61.13
2023-04-27T12:15:33.055Z,67.84
2023-04-27T12:18:36.675Z,63.03
2023-04-27T12:21:40.334Z,61.24
2023-04-27T12:24:44.248Z,61.71
2023-04-27T12:27:49.444Z,60.12
2023-04-27T12:30:53.194Z,59.39
2023-04-27T12:33:56.858Z,59.04
2023-04-27T12:37:01.111Z,58.89
2023-04-27T12:40:06.942Z,59.90
2023-04-27T12:43:12.883Z,63.15
2023-04-27T12:46:18.260Z,60.38
2023-04-27T12:49:22.044Z,60.98
2023-04-27T12:52:25.895Z,59.62
2023-04-27T12:55:33.673Z,57.97
2023-04-27T12:58:39.951Z,55.95
2023-04-27T13:01:43.715Z,56.67
2023-04-27T13:04:47.713Z,55.94
2023-04-27T13:07:51.554Z,57.77
2023-04-27T13:10:55.334Z,64.00
2023-04-27T13:14:02.124Z,58.83
2023-04-27T13:17:05.775Z,54.82
2023-04-27T13:20:11.046Z,56.68
2023-04-27T13:23:14.798Z,59.46
2023-04-27T13:26:19.115Z,58.19
2023-04-27T13:29:25.474Z,58.93
2023-04-27T13:32:29.315Z,58.65
2023-04-27T13:35:33.088Z,59.63
2023-04-27T13:38:37.145Z,59.53
2023-04-27T13:41:40.846Z,61.95
2023-04-27T13:44:45.779Z,60.96
2023-04-27T13:47:49.401Z,61.87
2023-04-27T13:50:53.030Z,64.77
2023-04-27T13:53:56.653Z,62.28
2023-04-27T13:57:00.232Z,63.80
2023-04-27T14:00:08.065Z,63.24
2023-04-27T14:03:12.024Z,64.74
2023-04-27T14:06:16.350Z,66.92
2023-04-27T14:09:20.424Z,64.54
2023-04-27T14:12:24.026Z,65.65
2023-04-27T14:15:29.270Z,65.47
2023-04-27T14:18:33.457Z,60.53
2023-04-27T14:21:37.141Z,60.09
2023-04-27T14:24:41.208Z,60.80
2023-04-27T14:27:45.670Z,61.95
2023-04-27T14:30:50.649Z,64.34
2023-04-27T14:33:54.262Z,64.01
2023-04-27T14:36:57.975Z,61.77
2023-04-27T14:40:03.282Z,62.42
2023-04-27T14:43:06.890Z,60.51
2023-04-27T14:46:20.231Z,58.61
2023-04-27T14:49:24.271Z,60.39
2023-04-27T14:52:29.145Z,62.06
2023-04-27T14:55:32.784Z,61.79
2023-04-27T14:58:36.618Z,61.96
2023-04-27T15:01:41.688Z,66.96
2023-04-27T15:04:45.431Z,67.43
2023-04-27T15:07:49.184Z,66.17
2023-04-27T15:10:53.997Z,63.29
2023-04-27T15:13:57.694Z,63.74
2023-04-27T15:17:02.695Z,63.97
2023-04-27T15:20:08.312Z,63.71
2023-04-27T15:23:11.985Z,67.71
2023-04-27T15:26:15.598Z,61.42
2023-04-27T15:29:19.199Z,63.90
2023-04-27T15:32:29.860Z,71.82
2023-04-27T15:35:33.762Z,69.39
2023-04-27T15:38:37.469Z,72.27
2023-04-27T15:41:41.678Z,70.15
2023-04-27T15:44:45.277Z,71.09
2023-04-27T15:47:50.289Z,71.10
2023-04-27T15:50:54.059Z,73.07
2023-04-27T15:53:57.681Z,74.45
2023-04-27T15:57:04.082Z,75.68
2023-04-27T16:00:10.468Z,73.33
2023-04-27T16:03:15.902Z,77.70
2023-04-27T16:06:19.734Z,81.05
2023-04-27T16:09:25.748Z,78.41
2023-04-27T16:12:30.780Z,79.17
2023-04-27T16:15:34.465Z,75.36
2023-04-27T16:18:39.512Z,79.50
2023-04-27T16:21:43.311Z,81.48
2023-04-27T16:24:47.400Z,98.16
2023-04-27T16:27:51.054Z,100.00
2023-04-27T16:30:54.758Z,100.00
2023-04-27T16:33:59.895Z,100.00
2023-04-27T16:37:03.522Z,100.00
2023-04-27T16:40:09.206Z,100.00
2023-04-27T16:43:12.896Z,100.00
2023-04-27T16:46:17.195Z,100.00
2023-04-27T16:49:22.348Z,100.00
2023-04-27T16:52:26.145Z,100.00
2023-04-27T16:55:31.285Z,100.00
2023-04-27T16:58:36.226Z,100.00
2023-04-27T17:01:40.471Z,100.00
2023-04-27T17:04:46.043Z,100.00
2023-04-27T17:07:49.794Z,100.00
2023-04-27T17:10:54.544Z,100.00
2023-04-27T17:13:58.163Z,100.00
2023-04-27T17:17:01.819Z,100.00
2023-04-27T17:20:09.425Z,100.00
2023-04-27T17:23:13.069Z,100.00
2023-04-27T17:26:19.944Z,100.00
2023-04-27T17:29:23.720Z,100.00
2023-04-27T17:32:27.348Z,100.00
2023-04-27T17:35:33.041Z,100.00
2023-04-27T17:38:37.173Z,100.00
2023-04-27T17:41:40.872Z,100.00
2023-04-27T17:44:44.601Z,100.00
2023-04-27T17:47:50.580Z,100.00
2023-04-27T17:50:55.798Z,100.00
2023-04-27T17:53:59.517Z,100.00
2023-04-27T17:57:03.188Z,100.00
2023-04-27T18:00:09.356Z,100.00
2023-04-27T18:03:13.454Z,100.00
2023-04-27T18:06:19.497Z,100.00
2023-04-27T18:09:23.581Z,100.00
2023-04-27T18:12:27.369Z,100.00
2023-04-27T18:15:35.997Z,100.00
2023-04-27T18:18:39.634Z,100.00
2023-04-27T18:21:44.956Z,100.00
2023-04-27T18:24:48.740Z,100.00
2023-04-27T18:27:55.559Z,100.00
2023-04-27T18:30:59.335Z,100.00
2023-04-27T18:34:03.127Z,100.00
2023-04-27T18:37:08.149Z,100.00
2023-04-27T18:40:13.590Z,100.00
2023-04-27T18:43:17.262Z,100.00
2023-04-27T18:46:21.189Z,100.00
2023-04-27T18:49:24.983Z,100.00
2023-04-27T18:52:30.156Z,100.00
2023-04-27T18:55:34.014Z,100.00
2023-04-27T18:58:37.974Z,100.00
2023-04-27T19:01:41.865Z,100.00
2023-04-27T19:04:52.951Z,100.00
2023-04-27T19:08:02.198Z,100.00
2023-04-27T19:11:05.841Z,100.00
2023-04-27T19:14:09.505Z,100.00
2023-04-27T19:17:13.121Z,100.00
2023-04-27T19:20:16.755Z,100.00
2023-04-27T19:23:21.944Z,100.00
2023-04-27T19:26:26.291Z,100.00
2023-04-27T19:29:31.429Z,100.00
2023-04-27T19:32:35.319Z,100.00
2023-04-27T19:35:39.214Z,100.00
2023-04-27T19:38:44.288Z,100.00
2023-04-27T19:41:47.919Z,100.00
2023-04-27T19:44:51.521Z,100.00
2023-04-27T19:47:55.665Z,100.00
2023-04-27T19:50:59.339Z,100.00
2023-04-27T19:54:04.489Z,100.00
2023-04-27T19:57:08.074Z,100.00
2023-04-27T20:00:13.269Z,100.00
2023-04-27T20:03:17.150Z,100.00
2023-04-27T20:06:21.770Z,100.00
2023-04-27T20:09:26.839Z,100.00
2023-04-27T20:15:38.872Z,100.00
2023-04-27T20:18:45.310Z,100.00
2023-04-27T20:21:49.051Z,100.00
2023-04-27T20:24:59.070Z,100.00
2023-04-27T20:28:02.915Z,100.00
2023-04-27T20:31:07.083Z,100.00
2023-04-27T20:34:11.361Z,100.00
2023-04-27T20:37:17.340Z,100.00
2023-04-27T20:40:22.939Z,100.00
2023-04-27T20:43:27.411Z,100.00
2023-04-27T20:46:34.250Z,100.00
2023-04-27T20:49:38.020Z,100.00
2023-04-27T20:52:41.792Z,100.00
2023-04-27T20:55:47.412Z,100.00
2023-04-27T20:58:51.050Z,100.00
2023-04-27T21:01:54.815Z,100.00
2023-04-27T21:04:58.614Z,100.00
2023-04-27T21:08:02.353Z,100.00
2023-04-27T21:11:07.751Z,100.00
2023-04-27T21:14:11.344Z,100.00
2023-04-27T21:17:15.334Z,100.00
2023-04-27T21:20:19.347Z,100.00
2023-04-27T21:23:23.057Z,100.00
2023-04-27T21:26:28.035Z,100.00
2023-04-27T21:29:31.686Z,100.00
2023-04-27T21:32:35.285Z,100.00
2023-04-27T21:35:38.805Z,100.00
2023-04-27T21:38:42.376Z,100.00
2023-04-27T21:41:47.302Z,100.00
2023-04-27T21:44:50.925Z,100.00
2023-04-27T21:47:54.737Z,100.00
2023-04-27T21:50:58.306Z,100.00
2023-04-27T21:54:02.249Z,100.00
2023-04-27T21:57:07.480Z,100.00
2023-04-27T22:00:14.603Z,100.00
2023-04-27T22:03:18.358Z,100.00
2023-04-27T22:06:22.076Z,100.00
2023-04-27T22:09:25.677Z,100.00
2023-04-27T22:12:30.733Z,100.00
2023-04-27T22:15:34.853Z,100.00
2023-04-27T22:18:38.963Z,100.00
2023-04-27T22:21:42.578Z,100.00
2023-04-27T22:24:46.441Z,100.00
2023-04-27T22:27:51.496Z,100.00
2023-04-27T22:30:56.707Z,100.00
2023-04-27T22:34:00.539Z,100.00
2023-04-27T22:37:04.437Z,100.00
2023-04-27T22:40:10.294Z,100.00
2023-04-27T22:43:15.433Z,100.00
2023-04-27T22:46:19.047Z,100.00
2023-04-27T22:49:22.986Z,100.00
2023-04-27T22:52:26.864Z,100.00
2023-04-27T22:55:30.799Z,100.00
2023-04-27T22:58:36.693Z,100.00
2023-04-27T23:01:40.622Z,100.00
2023-04-27T23:04:44.574Z,100.00
2023-04-27T23:07:48.125Z,100.00
2023-04-27T23:10:53.243Z,100.00
2023-04-27T23:13:58.932Z,100.00
2023-04-27T23:17:02.883Z,100.00
2023-04-27T23:20:24.095Z,100.00
2023-04-27T23:23:30.973Z,100.00
2023-04-27T23:26:34.642Z,100.00
2023-04-27T23:29:39.897Z,100.00
2023-04-27T23:32:43.610Z,100.00
2023-04-27T23:35:47.178Z,100.00
2023-04-27T23:38:51.366Z,100.00
2023-04-27T23:41:55.172Z,100.00
2023-04-27T23:45:00.391Z,100.00
2023-04-27T23:48:04.077Z,100.00
2023-04-27T23:51:08.078Z,100.00
2023-04-27T23:54:11.614Z,100.00
2023-04-27T23:57:16.986Z,100.00
